createdAt,value
2023-02-26T00:02:19.345Z,98697.94
2023-02-26T00:04:52.234Z,98693.19
2023-02-26T00:07:29.319Z,98706.00
2023-02-26T00:10:02.962Z,98703.06
2023-02-26T00:12:37.434Z,98705.28
2023-02-26T00:15:15.134Z,98701.34
2023-02-26T00:18:00.575Z,98712.84
2023-02-26T00:20:34.664Z,98714.91
2023-02-26T00:23:08.071Z,98710.88
2023-02-26T00:25:41.213Z,98713.09
2023-02-26T00:28:14.971Z,98717.63
2023-02-26T00:30:48.462Z,98722.91
2023-02-26T00:33:24.117Z,98723.66
2023-02-26T00:36:10.436Z,98723.09
2023-02-26T00:38:46.372Z,98728.84
2023-02-26T00:41:19.855Z,98731.28
2023-02-26T00:43:53.122Z,98727.94
2023-02-26T00:46:36.886Z,98731.22
2023-02-26T00:49:28.532Z,98732.94
2023-02-26T00:52:06.205Z,98723.97
2023-02-26T00:54:39.271Z,98726.22
2023-02-26T00:57:12.342Z,98731.44
2023-02-26T00:59:45.409Z,98726.94
2023-02-26T01:02:18.739Z,98726.41
2023-02-26T01:04:53.928Z,98729.47
2023-02-26T01:07:29.457Z,98727.03
2023-02-26T01:10:03.007Z,98720.34
2023-02-26T01:12:36.515Z,98717.34
2023-02-26T01:15:11.283Z,98728.34
2023-02-26T01:17:50.893Z,98726.31
2023-02-26T01:20:30.931Z,98722.47
2023-02-26T01:23:09.460Z,98720.47
2023-02-26T01:25:49.134Z,98719.78
2023-02-26T01:28:22.970Z,98717.69
2023-02-26T01:31:04.653Z,98728.56
2023-02-26T01:33:45.659Z,98721.38
2023-02-26T01:36:23.835Z,98723.81
2023-02-26T01:39:05.473Z,98721.72
2023-02-26T01:41:44.744Z,98733.56
2023-02-26T01:44:25.246Z,98733.16
2023-02-26T01:47:10.726Z,98728.84
2023-02-26T01:49:45.244Z,98729.31
2023-02-26T01:53:01.023Z,98741.47
2023-02-26T01:55:35.608Z,98737.69
2023-02-26T01:58:08.739Z,98745.03
2023-02-26T02:00:41.757Z,98750.94
2023-02-26T02:03:15.208Z,98747.88
2023-02-26T02:05:51.796Z,98751.25
2023-02-26T02:08:25.301Z,98743.28
2023-02-26T02:10:59.785Z,98753.78
2023-02-26T02:13:56.929Z,98731.91
2023-02-26T02:16:39.060Z,98744.91
2023-02-26T02:19:56.030Z,98739.88
2023-02-26T02:22:48.169Z,98747.16
2023-02-26T02:25:57.067Z,98748.13
2023-02-26T02:28:44.076Z,98743.81
2023-02-26T02:31:26.964Z,98755.59
2023-02-26T02:34:09.202Z,98754.97
2023-02-26T02:36:46.238Z,98748.66
2023-02-26T02:39:24.109Z,98762.22
2023-02-26T02:42:01.568Z,98761.00
2023-02-26T02:44:41.231Z,98762.09
2023-02-26T02:47:18.284Z,98763.50
2023-02-26T02:50:01.173Z,98771.16
2023-02-26T02:52:39.942Z,98763.31
2023-02-26T02:55:19.723Z,98764.53
2023-02-26T02:57:59.536Z,98769.56
2023-02-26T03:00:36.601Z,98761.84
2023-02-26T03:03:19.260Z,98766.97
2023-02-26T03:05:52.298Z,98769.84
2023-02-26T03:08:30.689Z,98774.16
2023-02-26T03:11:03.689Z,98773.16
2023-02-26T03:13:39.678Z,98780.88
2023-02-26T03:16:31.204Z,98771.88
2023-02-26T03:19:17.057Z,98789.44
2023-02-26T03:21:57.436Z,98782.94
2023-02-26T03:24:58.739Z,98788.25
2023-02-26T03:27:37.238Z,98779.19
2023-02-26T03:30:18.969Z,98784.28
2023-02-26T03:33:02.637Z,98792.59
2023-02-26T03:35:45.101Z,98791.84
2023-02-26T03:38:26.720Z,98802.91
2023-02-26T03:41:04.415Z,98807.59
2023-02-26T03:43:44.673Z,98806.72
2023-02-26T03:46:25.875Z,98809.97
2023-02-26T03:49:03.294Z,98808.22
2023-02-26T03:51:40.838Z,98814.56
2023-02-26T03:54:36.035Z,98815.41
2023-02-26T03:57:45.193Z,98825.44
2023-02-26T04:00:42.976Z,98826.81
2023-02-26T04:03:24.891Z,98834.09
2023-02-26T04:05:58.722Z,98838.91
2023-02-26T04:08:33.483Z,98840.13
2023-02-26T04:11:09.484Z,98843.56
2023-02-26T04:13:42.439Z,98838.34
2023-02-26T04:16:15.820Z,98840.22
2023-02-26T04:18:48.752Z,98836.81
2023-02-26T04:21:23.914Z,98840.25
2023-02-26T04:23:58.611Z,98840.06
2023-02-26T04:26:31.641Z,98842.72
2023-02-26T04:29:04.973Z,98843.81
2023-02-26T04:31:38.416Z,98836.75
2023-02-26T04:34:11.367Z,98840.13
2023-02-26T04:36:45.119Z,98842.25
2023-02-26T04:39:19.928Z,98846.69
2023-02-26T04:41:53.087Z,98853.25
2023-02-26T04:44:26.329Z,98854.72
2023-02-26T04:46:59.181Z,98862.31
2023-02-26T04:49:32.078Z,98859.03
2023-02-26T04:52:05.287Z,98865.56
2023-02-26T04:54:41.788Z,98871.66
2023-02-26T04:57:16.612Z,98876.72
2023-02-26T04:59:50.700Z,98880.28
2023-02-26T05:02:23.621Z,98887.72
2023-02-26T05:04:58.738Z,98883.41
2023-02-26T05:07:31.608Z,98889.78
2023-02-26T05:10:07.355Z,98896.22
2023-02-26T05:12:40.467Z,98893.66
2023-02-26T05:15:13.607Z,98902.66
2023-02-26T05:17:49.089Z,98899.72
2023-02-26T05:20:22.301Z,98905.31
2023-02-26T05:22:55.213Z,98900.09
2023-02-26T05:25:30.133Z,98904.34
2023-02-26T05:28:03.475Z,98913.50
2023-02-26T05:30:36.626Z,98915.13
2023-02-26T05:33:09.768Z,98917.59
2023-02-26T05:35:42.700Z,98915.34
2023-02-26T05:38:15.718Z,98909.88
2023-02-26T05:40:50.349Z,98916.56
2023-02-26T05:43:23.180Z,98910.41
2023-02-26T05:45:56.610Z,98921.59
2023-02-26T05:48:29.654Z,98923.00
2023-02-26T05:51:02.979Z,98932.94
2023-02-26T05:53:35.830Z,98937.88
2023-02-26T05:56:10.354Z,98926.41
2023-02-26T05:58:43.467Z,98931.22
2023-02-26T06:01:16.686Z,98940.97
2023-02-26T06:03:49.699Z,98939.13
2023-02-26T06:06:23.383Z,98954.56
2023-02-26T06:08:56.568Z,98941.13
2023-02-26T06:11:33.019Z,98950.09
2023-02-26T06:14:07.011Z,98961.47
2023-02-26T06:16:40.362Z,98963.75
2023-02-26T06:19:13.304Z,98966.53
2023-02-26T06:21:47.216Z,98977.59
2023-02-26T06:24:20.558Z,98977.72
2023-02-26T06:26:54.790Z,98992.88
2023-02-26T06:29:28.037Z,98989.22
2023-02-26T06:32:01.249Z,98987.34
2023-02-26T06:34:35.113Z,99000.75
2023-02-26T06:37:08.791Z,99008.53
2023-02-26T06:39:44.722Z,99010.66
2023-02-26T06:42:20.256Z,99010.31
2023-02-26T06:44:57.213Z,99018.50
2023-02-26T06:47:30.391Z,99017.78
2023-02-26T06:50:04.154Z,99018.75
2023-02-26T06:52:37.705Z,99029.91
2023-02-26T06:55:11.981Z,99032.03
2023-02-26T06:57:46.222Z,99035.41
2023-02-26T07:00:19.693Z,99030.69
2023-02-26T07:02:54.063Z,99043.16
2023-02-26T07:05:27.022Z,99040.88
2023-02-26T07:07:59.869Z,99045.84
2023-02-26T07:10:33.657Z,99054.59
2023-02-26T07:13:08.039Z,99062.03
2023-02-26T07:15:40.898Z,99065.34
2023-02-26T07:18:13.774Z,99066.16
2023-02-26T07:20:46.603Z,99073.28
2023-02-26T07:23:19.351Z,99068.88
2023-02-26T07:25:53.336Z,99077.66
2023-02-26T07:28:27.613Z,99086.13
2023-02-26T07:31:01.052Z,99085.25
2023-02-26T07:33:38.547Z,99087.94
2023-02-26T07:36:11.709Z,99090.13
2023-02-26T07:38:44.693Z,99083.22
2023-02-26T07:41:17.626Z,99096.13
2023-02-26T07:43:52.111Z,99101.16
2023-02-26T07:46:25.387Z,99097.53
2023-02-26T07:48:58.482Z,99111.38
2023-02-26T07:51:32.603Z,99115.75
2023-02-26T07:54:08.045Z,99108.34
2023-02-26T07:56:41.313Z,99113.13
2023-02-26T07:59:15.480Z,99122.31
2023-02-26T08:01:48.630Z,99128.19
2023-02-26T08:04:21.710Z,99120.03
2023-02-26T08:06:54.938Z,99118.38
2023-02-26T08:09:27.975Z,99122.84
2023-02-26T08:12:01.033Z,99127.63
2023-02-26T08:14:35.360Z,99130.09
2023-02-26T08:17:11.599Z,99135.84
2023-02-26T08:19:44.507Z,99133.97
2023-02-26T08:22:17.315Z,99139.91
2023-02-26T08:24:50.249Z,99142.03
2023-02-26T08:27:23.178Z,99153.91
2023-02-26T08:29:57.404Z,99154.16
2023-02-26T08:32:30.720Z,99159.22
2023-02-26T08:35:03.580Z,99160.13
2023-02-26T08:37:36.580Z,99169.78
2023-02-26T08:40:12.498Z,99163.25
2023-02-26T08:42:48.142Z,99168.22
2023-02-26T08:45:22.594Z,99175.44
2023-02-26T08:47:57.220Z,99171.41
2023-02-26T08:50:30.343Z,99176.44
2023-02-26T08:53:03.328Z,99174.59
2023-02-26T08:55:36.155Z,99181.66
2023-02-26T08:58:08.977Z,99179.06
2023-02-26T09:00:43.265Z,99188.97
2023-02-26T09:03:16.438Z,99185.97
2023-02-26T09:05:49.315Z,99192.84
2023-02-26T09:08:22.425Z,99193.50
2023-02-26T09:10:55.781Z,99195.28
2023-02-26T09:13:28.708Z,99194.94
2023-02-26T09:16:03.118Z,99207.72
2023-02-26T09:18:36.207Z,99212.72
2023-02-26T09:21:09.088Z,99217.50
2023-02-26T09:23:41.919Z,99223.84
2023-02-26T09:26:15.132Z,99230.66
2023-02-26T09:28:49.020Z,99243.59
2023-02-26T09:31:23.427Z,99245.88
2023-02-26T09:33:56.985Z,99248.53
2023-02-26T09:36:31.267Z,99249.63
2023-02-26T09:39:04.566Z,99250.31
2023-02-26T09:41:40.069Z,99252.53
2023-02-26T09:44:20.540Z,99244.63
2023-02-26T09:47:02.355Z,99243.19
2023-02-26T09:49:47.763Z,99245.81
2023-02-26T09:52:25.811Z,99254.16
2023-02-26T09:55:01.299Z,99258.25
2023-02-26T09:57:36.649Z,99261.97
2023-02-26T10:00:23.869Z,99267.72
2023-02-26T10:03:10.859Z,99273.06
2023-02-26T10:05:54.771Z,99276.41
2023-02-26T10:08:34.924Z,99284.41
2023-02-26T10:11:12.617Z,99275.59
2023-02-26T10:13:57.699Z,99282.22
2023-02-26T10:16:36.420Z,99281.91
2023-02-26T10:19:16.354Z,99275.19
2023-02-26T10:21:52.756Z,99279.91
2023-02-26T10:24:30.757Z,99287.91
2023-02-26T10:27:07.477Z,99299.84
2023-02-26T10:29:46.008Z,99299.09
2023-02-26T10:32:26.980Z,99304.22
2023-02-26T10:35:04.213Z,99300.88
2023-02-26T10:37:47.675Z,99313.75
2023-02-26T10:40:28.393Z,99311.78
2023-02-26T10:43:09.838Z,99316.06
2023-02-26T10:45:54.733Z,99311.84
2023-02-26T10:48:45.439Z,99318.44
2023-02-26T10:51:20.319Z,99313.50
2023-02-26T10:53:58.002Z,99327.94
2023-02-26T10:56:33.349Z,99326.88
2023-02-26T10:59:06.138Z,99320.38
2023-02-26T11:01:39.587Z,99330.47
2023-02-26T11:04:14.982Z,99337.25
2023-02-26T11:06:53.792Z,99332.38
2023-02-26T11:09:29.990Z,99331.66
2023-02-26T11:12:06.874Z,99336.09
2023-02-26T11:14:40.335Z,99335.13
2023-02-26T11:17:16.240Z,99340.13
2023-02-26T11:19:57.426Z,99330.31
2023-02-26T11:22:36.519Z,99345.81
2023-02-26T11:25:15.368Z,99347.31
2023-02-26T11:27:51.653Z,99340.63
2023-02-26T11:30:28.339Z,99351.28
2023-02-26T11:33:08.549Z,99349.91
2023-02-26T11:35:42.026Z,99348.00
2023-02-26T11:38:21.436Z,99345.88
2023-02-26T11:40:57.550Z,99344.69
2023-02-26T11:43:37.623Z,99340.38
2023-02-26T11:46:12.007Z,99336.25
2023-02-26T11:48:48.288Z,99339.91
2023-02-26T11:51:24.121Z,99332.91
2023-02-26T11:54:01.542Z,99335.78
2023-02-26T11:56:40.392Z,99336.97
2023-02-26T11:59:19.689Z,99333.97
2023-02-26T12:01:54.707Z,99334.53
2023-02-26T12:04:32.920Z,99344.78
2023-02-26T12:07:06.084Z,99337.88
2023-02-26T12:09:40.436Z,99334.78
2023-02-26T12:12:25.352Z,99326.22
2023-02-26T12:15:11.398Z,99338.69
2023-02-26T12:18:18.882Z,99326.19
2023-02-26T12:21:07.102Z,99328.38
2023-02-26T12:23:56.593Z,99330.97
2023-02-26T12:26:35.018Z,99341.44
2023-02-26T12:29:29.536Z,99327.28
2023-02-26T12:32:31.276Z,99332.28
2023-02-26T12:35:43.995Z,99332.19
2023-02-26T12:38:31.729Z,99331.53
2023-02-26T12:41:18.475Z,99334.38
2023-02-26T12:43:55.784Z,99341.84
2023-02-26T12:46:44.258Z,99337.91
2023-02-26T12:49:55.808Z,99336.38
2023-02-26T12:52:52.262Z,99343.41
2023-02-26T12:55:37.176Z,99346.50
2023-02-26T12:58:36.832Z,99349.47
2023-02-26T13:01:26.202Z,99352.81
2023-02-26T13:04:39.751Z,99346.16
2023-02-26T13:07:52.298Z,99344.06
2023-02-26T13:10:33.968Z,99343.19
2023-02-26T13:13:20.567Z,99351.22
2023-02-26T13:16:07.361Z,99353.38
2023-02-26T13:18:50.474Z,99353.59
2023-02-26T13:21:28.594Z,99360.53
2023-02-26T13:24:07.009Z,99361.91
2023-02-26T13:26:42.328Z,99354.06
2023-02-26T13:29:19.926Z,99365.38
2023-02-26T13:31:58.390Z,99354.56
2023-02-26T13:34:40.971Z,99356.94
2023-02-26T13:37:24.080Z,99352.50
2023-02-26T13:40:13.987Z,99346.22
2023-02-26T13:42:52.703Z,99357.75
2023-02-26T13:45:39.995Z,99359.13
2023-02-26T13:48:23.853Z,99360.34
2023-02-26T13:51:09.141Z,99359.59
2023-02-26T13:53:54.280Z,99356.75
2023-02-26T13:56:51.035Z,99364.34
2023-02-26T13:59:36.208Z,99359.50
2023-02-26T14:02:37.956Z,99360.63
2023-02-26T14:05:31.123Z,99362.53
2023-02-26T14:08:40.486Z,99358.47
2023-02-26T14:11:48.461Z,99370.09
2023-02-26T14:14:31.122Z,99370.69
2023-02-26T14:17:28.880Z,99382.81
2023-02-26T14:20:20.001Z,99372.78
2023-02-26T14:23:15.185Z,99382.38
2023-02-26T14:25:52.180Z,99385.50
2023-02-26T14:28:57.250Z,99384.25
2023-02-26T14:31:51.712Z,99401.53
2023-02-26T14:34:27.641Z,99387.88
2023-02-26T14:37:04.198Z,99398.00
2023-02-26T14:39:39.968Z,99387.78
2023-02-26T14:42:20.397Z,99393.03
2023-02-26T14:44:55.712Z,99395.41
2023-02-26T14:47:28.609Z,99397.72
2023-02-26T14:50:01.401Z,99400.66
2023-02-26T14:53:03.322Z,99408.69
2023-02-26T14:55:57.673Z,99403.78
2023-02-26T14:58:52.158Z,99406.84
2023-02-26T15:01:46.422Z,99396.72
2023-02-26T15:04:38.112Z,99408.13
2023-02-26T15:07:24.867Z,99410.47
2023-02-26T15:10:11.742Z,99416.81
2023-02-26T15:12:56.251Z,99413.06
2023-02-26T15:15:38.041Z,99425.72
2023-02-26T15:18:38.446Z,99421.47
2023-02-26T15:21:19.712Z,99424.22
2023-02-26T15:23:54.856Z,99421.78
2023-02-26T15:26:32.199Z,99437.16
2023-02-26T15:29:08.329Z,99431.44
2023-02-26T15:31:45.589Z,99438.91
2023-02-26T15:34:18.484Z,99442.56
2023-02-26T15:36:54.210Z,99449.97
2023-02-26T15:39:27.579Z,99455.13
2023-02-26T15:42:02.162Z,99454.91
2023-02-26T15:44:38.617Z,99447.34
2023-02-26T15:47:17.368Z,99452.22
2023-02-26T15:49:50.773Z,99457.41
2023-02-26T15:52:26.787Z,99463.47
2023-02-26T15:55:03.904Z,99458.69
2023-02-26T15:57:37.841Z,99459.88
2023-02-26T16:00:17.500Z,99469.41
2023-02-26T16:02:53.406Z,99473.63
2023-02-26T16:05:27.508Z,99473.94
2023-02-26T16:08:00.435Z,99480.19
2023-02-26T16:10:38.482Z,99481.31
2023-02-26T16:13:16.511Z,99491.84
2023-02-26T16:15:49.754Z,99488.63
2023-02-26T16:18:26.295Z,99485.50
2023-02-26T16:21:01.771Z,99494.00
2023-02-26T16:23:45.585Z,99502.72
2023-02-26T16:26:22.651Z,99504.88
2023-02-26T16:29:00.004Z,99516.63
2023-02-26T16:31:37.042Z,99506.78
2023-02-26T16:34:28.946Z,99523.69
2023-02-26T16:37:14.502Z,99523.59
2023-02-26T16:39:47.515Z,99525.19
2023-02-26T16:42:33.140Z,99532.97
2023-02-26T16:45:26.296Z,99537.00
2023-02-26T16:48:00.737Z,99543.75
2023-02-26T16:50:38.157Z,99550.69
2023-02-26T16:53:17.300Z,99550.31
2023-02-26T16:55:55.019Z,99558.53
2023-02-26T16:58:30.619Z,99567.94
2023-02-26T17:01:09.892Z,99571.84
2023-02-26T17:03:44.898Z,99571.63
2023-02-26T17:06:20.426Z,99574.19
2023-02-26T17:08:59.351Z,99576.56
2023-02-26T17:11:35.486Z,99588.13
2023-02-26T17:14:15.421Z,99580.84
2023-02-26T17:16:48.678Z,99591.56
2023-02-26T17:19:22.313Z,99587.31
2023-02-26T17:21:59.326Z,99590.34
2023-02-26T17:24:35.157Z,99598.78
2023-02-26T17:27:11.247Z,99597.78
2023-02-26T17:29:55.251Z,99611.59
2023-02-26T17:32:35.190Z,99614.47
2023-02-26T17:35:09.136Z,99612.59
2023-02-26T17:37:44.142Z,99619.94
2023-02-26T17:40:21.035Z,99626.63
2023-02-26T17:42:54.516Z,99634.25
2023-02-26T17:45:27.625Z,99640.59
2023-02-26T17:48:00.622Z,99635.44
2023-02-26T17:50:41.298Z,99645.00
2023-02-26T17:53:16.296Z,99641.69
2023-02-26T17:55:52.325Z,99643.25
2023-02-26T17:58:29.007Z,99646.16
2023-02-26T18:01:04.223Z,99650.41
2023-02-26T18:03:38.477Z,99653.59
2023-02-26T18:06:14.699Z,99651.94
2023-02-26T18:08:49.521Z,99655.13
2023-02-26T18:11:26.030Z,99654.13
2023-02-26T18:13:59.423Z,99660.19
2023-02-26T18:16:35.978Z,99665.63
2023-02-26T18:19:10.116Z,99673.34
2023-02-26T18:21:43.723Z,99673.09
2023-02-26T18:24:18.420Z,99671.06
2023-02-26T18:26:51.445Z,99670.03
2023-02-26T18:29:24.302Z,99669.25
2023-02-26T18:32:00.560Z,99668.31
2023-02-26T18:34:34.391Z,99674.97
2023-02-26T18:37:07.358Z,99671.19
2023-02-26T18:39:42.085Z,99685.50
2023-02-26T18:42:21.500Z,99680.31
2023-02-26T18:44:55.200Z,99677.00
2023-02-26T18:47:28.250Z,99682.41
2023-02-26T18:50:01.348Z,99682.25
2023-02-26T18:52:34.586Z,99683.41
2023-02-26T18:55:10.495Z,99689.25
2023-02-26T18:57:43.419Z,99694.19
2023-02-26T19:00:17.138Z,99693.72
2023-02-26T19:02:50.341Z,99697.09
2023-02-26T19:05:26.112Z,99697.00
2023-02-26T19:07:59.809Z,99698.84
2023-02-26T19:10:34.725Z,99709.78
2023-02-26T19:13:07.973Z,99713.25
2023-02-26T19:15:41.639Z,99712.66
2023-02-26T19:18:15.298Z,99712.34
2023-02-26T19:20:48.724Z,99727.06
2023-02-26T19:23:21.600Z,99722.28
2023-02-26T19:25:56.098Z,99730.84
2023-02-26T19:28:29.649Z,99722.50
2023-02-26T19:31:02.898Z,99729.34
2023-02-26T19:33:35.928Z,99738.69
2023-02-26T19:36:09.882Z,99730.44
2023-02-26T19:38:48.003Z,99732.38
2023-02-26T19:41:22.758Z,99726.00
2023-02-26T19:43:56.052Z,99731.03
2023-02-26T19:46:28.990Z,99728.59
2023-02-26T19:49:01.951Z,99728.34
2023-02-26T19:51:34.874Z,99737.28
2023-02-26T19:54:08.346Z,99737.88
2023-02-26T19:56:44.060Z,99736.59
2023-02-26T19:59:17.427Z,99734.25
2023-02-26T20:01:50.742Z,99733.38
2023-02-26T20:04:23.971Z,99740.19
2023-02-26T20:06:56.878Z,99733.69
2023-02-26T20:09:29.930Z,99733.00
2023-02-26T20:12:04.369Z,99737.03
2023-02-26T20:14:37.531Z,99746.84
2023-02-26T20:17:10.545Z,99749.66
2023-02-26T20:19:44.495Z,99758.25
2023-02-26T20:22:17.755Z,99757.59
2023-02-26T20:24:52.351Z,99768.47
2023-02-26T20:27:26.922Z,99762.91
2023-02-26T20:29:59.998Z,99756.38
2023-02-26T20:32:33.668Z,99756.31
2023-02-26T20:35:07.459Z,99753.47
2023-02-26T20:37:41.250Z,99752.59
2023-02-26T20:40:14.828Z,99750.47
2023-02-26T20:42:49.296Z,99760.63
2023-02-26T20:45:22.535Z,99762.97
2023-02-26T20:47:55.643Z,99757.84
2023-02-26T20:50:28.682Z,99763.72
2023-02-26T20:53:02.110Z,99767.31
2023-02-26T20:55:35.615Z,99775.66
2023-02-26T20:58:09.920Z,99777.25
2023-02-26T21:00:42.983Z,99775.66
2023-02-26T21:03:15.909Z,99778.53
2023-02-26T21:05:48.687Z,99776.19
2023-02-26T21:08:21.831Z,99776.09
2023-02-26T21:10:54.818Z,99783.84
2023-02-26T21:13:29.085Z,99777.88
2023-02-26T21:16:03.378Z,99786.81
2023-02-26T21:18:36.336Z,99777.00
2023-02-26T21:21:10.074Z,99779.38
2023-02-26T21:23:43.138Z,99791.03
2023-02-26T21:26:16.229Z,99786.63
2023-02-26T21:28:51.154Z,99789.25
2023-02-26T21:31:24.437Z,99790.22
2023-02-26T21:33:57.411Z,99793.22
2023-02-26T21:36:30.583Z,99790.81
2023-02-26T21:39:04.147Z,99799.38
2023-02-26T21:41:37.012Z,99798.13
2023-02-26T21:44:11.270Z,99801.94
2023-02-26T21:46:44.210Z,99796.25
2023-02-26T21:49:17.539Z,99798.44
2023-02-26T21:51:50.314Z,99788.88
2023-02-26T21:54:23.965Z,99794.72
2023-02-26T21:56:56.952Z,99803.72
2023-02-26T21:59:31.252Z,99798.84
2023-02-26T22:02:04.680Z,99798.31
2023-02-26T22:04:38.069Z,99804.66
2023-02-26T22:07:11.535Z,99804.88
2023-02-26T22:09:47.035Z,99799.91
2023-02-26T22:12:20.377Z,99791.78
2023-02-26T22:14:54.683Z,99803.59
2023-02-26T22:17:27.535Z,99810.19
2023-02-26T22:20:00.427Z,99811.41
2023-02-26T22:22:33.347Z,99808.03
2023-02-26T22:25:09.189Z,99810.19
2023-02-26T22:27:41.995Z,99811.16
2023-02-26T22:30:16.881Z,99807.94
2023-02-26T22:32:49.953Z,99809.78
2023-02-26T22:35:23.408Z,99810.16
2023-02-26T22:37:56.613Z,99814.00
2023-02-26T22:40:29.632Z,99811.06
2023-02-26T22:43:02.478Z,99810.16
2023-02-26T22:45:36.710Z,99810.81
2023-02-26T22:48:09.512Z,99810.75
2023-02-26T22:50:43.488Z,99815.03
2023-02-26T22:53:16.447Z,99806.00
2023-02-26T22:55:49.268Z,99818.56
2023-02-26T22:58:22.154Z,99809.13
2023-02-26T23:01:01.712Z,99816.84
2023-02-26T23:03:35.034Z,99821.91
2023-02-26T23:06:09.037Z,99824.00
2023-02-26T23:08:42.128Z,99819.56
2023-02-26T23:11:15.589Z,99827.38
2023-02-26T23:13:48.793Z,99831.59
2023-02-26T23:16:23.161Z,99831.91
2023-02-26T23:18:56.325Z,99826.63
2023-02-26T23:21:30.822Z,99824.97
2023-02-26T23:24:03.812Z,99827.91
2023-02-26T23:26:36.762Z,99828.78
2023-02-26T23:29:10.248Z,99830.06
2023-02-26T23:31:44.639Z,99824.00
2023-02-26T23:34:17.933Z,99830.00
2023-02-26T23:36:50.796Z,99832.25
2023-02-26T23:39:24.287Z,99831.25
2023-02-26T23:41:57.745Z,99824.00
2023-02-26T23:44:30.672Z,99836.09
2023-02-26T23:47:04.975Z,99825.44
2023-02-26T23:49:37.898Z,99825.69
2023-02-26T23:52:11.267Z,99830.53
2023-02-26T23:54:44.169Z,99832.25
2023-02-26T23:57:17.040Z,99837.38
2023-02-26T23:59:49.928Z,99843.41
